sensor_id;sensor_type;location;lat;lon;timestamp;pressure;altitude;pressure_sealevel;temperature;humidity
11314;BME280;5712;48.858;9.206;2023-11-21T00:01:40;97578.56;;;7.59;100.00
11314;BME280;5712;48.858;9.206;2023-11-21T00:04:06;97571.00;;;7.67;100.00
11314;BME280;5712;48.858;9.206;2023-11-21T00:06:33;97568.38;;;7.67;100.00
11314;BME280;5712;48.858;9.206;2023-11-21T00:09:01;97568.97;;;7.58;100.00
11314;BME280;5712;48.858;9.206;2023-11-21T00:11:27;97563.94;;;7.55;100.00
11314;BME280;5712;48.858;9.206;2023-11-21T00:13:54;97569.78;;;7.46;100.00
11314;BME280;5712;48.858;9.206;2023-11-21T00:16:20;97567.06;;;7.47;100.00
11314;BME280;5712;48.858;9.206;2023-11-21T00:18:47;97562.44;;;7.51;100.00
11314;BME280;5712;48.858;9.206;2023-11-21T00:21:14;97556.78;;;7.57;100.00
11314;BME280;5712;48.858;9.206;2023-11-21T00:23:40;97558.19;;;7.62;100.00
11314;BME280;5712;48.858;9.206;2023-11-21T00:26:08;97559.63;;;7.66;100.00
11314;BME280;5712;48.858;9.206;2023-11-21T00:28:35;97560.09;;;7.73;100.00
11314;BME280;5712;48.858;9.206;2023-11-21T00:31:01;97558.28;;;7.73;100.00
11314;BME280;5712;48.858;9.206;2023-11-21T00:33:29;97551.25;;;7.74;100.00
11314;BME280;5712;48.858;9.206;2023-11-21T00:35:59;97558.81;;;7.78;100.00
11314;BME280;5712;48.858;9.206;2023-11-21T00:38:25;97550.66;;;7.83;100.00
11314;BME280;5712;48.858;9.206;2023-11-21T00:40:52;97552.31;;;7.84;100.00
11314;BME280;5712;48.858;9.206;2023-11-21T00:43:22;97547.59;;;7.89;100.00
11314;BME280;5712;48.858;9.206;2023-11-21T00:45:49;97550.31;;;7.87;100.00
11314;BME280;5712;48.858;9.206;2023-11-21T00:48:16;97554.31;;;7.93;100.00
11314;BME280;5712;48.858;9.206;2023-11-21T00:50:43;97550.97;;;7.91;100.00
11314;BME280;5712;48.858;9.206;2023-11-21T00:53:09;97557.25;;;7.88;100.00
11314;BME280;5712;48.858;9.206;2023-11-21T00:55:37;97553.59;;;7.91;100.00
11314;BME280;5712;48.858;9.206;2023-11-21T00:58:05;97556.00;;;7.94;100.00
11314;BME280;5712;48.858;9.206;2023-11-21T01:00:33;97552.53;;;7.93;100.00
11314;BME280;5712;48.858;9.206;2023-11-21T01:03:00;97559.38;;;7.96;100.00
11314;BME280;5712;48.858;9.206;2023-11-21T01:05:27;97553.06;;;7.98;100.00
11314;BME280;5712;48.858;9.206;2023-11-21T01:07:54;97548.88;;;7.96;100.00
11314;BME280;5712;48.858;9.206;2023-11-21T01:10:21;97557.81;;;7.93;100.00
11314;BME280;5712;48.858;9.206;2023-11-21T01:12:47;97558.13;;;7.89;100.00
11314;BME280;5712;48.858;9.206;2023-11-21T01:15:14;97547.38;;;7.92;100.00
11314;BME280;5712;48.858;9.206;2023-11-21T01:17:42;97554.53;;;7.90;100.00
11314;BME280;5712;48.858;9.206;2023-11-21T01:20:09;97540.22;;;7.94;100.00
11314;BME280;5712;48.858;9.206;2023-11-21T01:22:37;97551.78;;;7.91;100.00
11314;BME280;5712;48.858;9.206;2023-11-21T01:25:04;97550.44;;;7.98;100.00
11314;BME280;5712;48.858;9.206;2023-11-21T01:27:32;97554.13;;;7.96;100.00
11314;BME280;5712;48.858;9.206;2023-11-21T01:29:59;97559.38;;;7.96;100.00
11314;BME280;5712;48.858;9.206;2023-11-21T01:32:26;97559.38;;;7.96;100.00
11314;BME280;5712;48.858;9.206;2023-11-21T01:34:55;97561.25;;;7.94;100.00
11314;BME280;5712;48.858;9.206;2023-11-21T01:37:21;97555.38;;;7.90;100.00
11314;BME280;5712;48.858;9.206;2023-11-21T01:39:49;97558.13;;;7.89;100.00
11314;BME280;5712;48.858;9.206;2023-11-21T01:42:15;97556.41;;;7.88;100.00
11314;BME280;5712;48.858;9.206;2023-11-21T01:44:42;97560.94;;;7.86;100.00
11314;BME280;5712;48.858;9.206;2023-11-21T01:47:09;97559.56;;;7.93;100.00
11314;BME280;5712;48.858;9.206;2023-11-21T01:49:36;97562.84;;;7.96;100.00
11314;BME280;5712;48.858;9.206;2023-11-21T01:52:05;97546.88;;;7.99;100.00
11314;BME280;5712;48.858;9.206;2023-11-21T01:54:32;97543.19;;;8.02;100.00
11314;BME280;5712;48.858;9.206;2023-11-21T01:56:59;97550.13;;;8.03;100.00
11314;BME280;5712;48.858;9.206;2023-11-21T01:59:31;97552.75;;;8.03;100.00
11314;BME280;5712;48.858;9.206;2023-11-21T02:02:00;97542.97;;;8.05;100.00
11314;BME280;5712;48.858;9.206;2023-11-21T02:04:26;97543.06;;;8.03;100.00
11314;BME280;5712;48.858;9.206;2023-11-21T02:06:53;97547.41;;;8.04;100.00
11314;BME280;5712;48.858;9.206;2023-11-21T02:09:25;97548.22;;;8.05;100.00
11314;BME280;5712;48.858;9.206;2023-11-21T02:11:52;97553.28;;;8.08;100.00
11314;BME280;5712;48.858;9.206;2023-11-21T02:14:19;97555.16;;;8.06;100.00
11314;BME280;5712;48.858;9.206;2023-11-21T02:16:48;97555.78;;;8.09;100.00
11314;BME280;5712;48.858;9.206;2023-11-21T02:19:17;97553.28;;;8.08;100.00
11314;BME280;5712;48.858;9.206;2023-11-21T02:21:45;97545.59;;;8.05;100.00
11314;BME280;5712;48.858;9.206;2023-11-21T02:24:14;97538.13;;;8.11;100.00
11314;BME280;5712;48.858;9.206;2023-11-21T02:26:41;97546.97;;;8.10;100.00
11314;BME280;5712;48.858;9.206;2023-11-21T02:29:07;97552.13;;;8.12;100.00
11314;BME280;5712;48.858;9.206;2023-11-21T02:31:37;97548.44;;;8.14;100.00
11314;BME280;5712;48.858;9.206;2023-11-21T02:34:11;97549.06;;;8.18;100.00
11314;BME280;5712;48.858;9.206;2023-11-21T02:36:38;97545.47;;;8.19;100.00
11314;BME280;5712;48.858;9.206;2023-11-21T02:39:05;97544.59;;;8.20;100.00
11314;BME280;5712;48.858;9.206;2023-11-21T02:41:34;97541.81;;;8.21;100.00
11314;BME280;5712;48.858;9.206;2023-11-21T02:44:00;97542.03;;;8.18;100.00
11314;BME280;5712;48.858;9.206;2023-11-21T02:46:27;97539.00;;;8.24;100.00
11314;BME280;5712;48.858;9.206;2023-11-21T02:48:53;97540.06;;;8.22;100.00
11314;BME280;5712;48.858;9.206;2023-11-21T02:51:20;97531.19;;;8.23;100.00
11314;BME280;5712;48.858;9.206;2023-11-21T02:53:46;97533.72;;;8.24;100.00
11314;BME280;5712;48.858;9.206;2023-11-21T02:56:13;97533.09;;;8.21;100.00
11314;BME280;5712;48.858;9.206;2023-11-21T02:58:42;97533.94;;;8.21;100.00
11314;BME280;5712;48.858;9.206;2023-11-21T03:01:09;97529.06;;;8.15;100.00
11314;BME280;5712;48.858;9.206;2023-11-21T03:03:36;97530.97;;;8.13;100.00
11314;BME280;5712;48.858;9.206;2023-11-21T03:06:04;97535.78;;;8.07;100.00
11314;BME280;5712;48.858;9.206;2023-11-21T03:08:31;97535.16;;;8.03;100.00
11314;BME280;5712;48.858;9.206;2023-11-21T03:10:58;97538.31;;;8.08;100.00
11314;BME280;5712;48.858;9.206;2023-11-21T03:13:24;97538.31;;;8.08;100.00
11314;BME280;5712;48.858;9.206;2023-11-21T03:15:52;97538.22;;;8.10;100.00
11314;BME280;5712;48.858;9.206;2023-11-21T03:18:19;97536.94;;;8.15;100.00
11314;BME280;5712;48.858;9.206;2023-11-21T03:20:47;97548.66;;;8.11;100.00
11314;BME280;5712;48.858;9.206;2023-11-21T03:23:13;97545.91;;;8.13;100.00
11314;BME280;5712;48.858;9.206;2023-11-21T03:25:40;97548.53;;;8.13;100.00
11314;BME280;5712;48.858;9.206;2023-11-21T03:28:06;97543.25;;;8.13;100.00
11314;BME280;5712;48.858;9.206;2023-11-21T03:30:34;97545.69;;;8.16;100.00
11314;BME280;5712;48.858;9.206;2023-11-21T03:33:02;97547.38;;;8.17;100.00
11314;BME280;5712;48.858;9.206;2023-11-21T03:35:28;97545.59;;;8.17;100.00
11314;BME280;5712;48.858;9.206;2023-11-21T03:37:55;97550.59;;;8.22;100.00
11314;BME280;5712;48.858;9.206;2023-11-21T03:40:21;97545.31;;;8.22;100.00
11314;BME280;5712;48.858;9.206;2023-11-21T03:42:48;97547.22;;;8.20;100.00
11314;BME280;5712;48.858;9.206;2023-11-21T03:45:17;97547.38;;;8.17;100.00
11314;BME280;5712;48.858;9.206;2023-11-21T03:47:43;97550.75;;;8.19;100.00
11314;BME280;5712;48.858;9.206;2023-11-21T03:50:11;97553.94;;;8.24;100.00
11314;BME280;5712;48.858;9.206;2023-11-21T03:52:37;97548.25;;;8.17;100.00
11314;BME280;5712;48.858;9.206;2023-11-21T03:55:04;97555.84;;;8.22;100.00
11314;BME280;5712;48.858;9.206;2023-11-21T03:57:30;97554.16;;;8.21;100.00
11314;BME280;5712;48.858;9.206;2023-11-21T03:59:56;97560.38;;;8.20;100.00
11314;BME280;5712;48.858;9.206;2023-11-21T04:02:23;97563.75;;;8.22;100.00
11314;BME280;5712;48.858;9.206;2023-11-21T04:04:51;97571.63;;;8.22;100.00
11314;BME280;5712;48.858;9.206;2023-11-21T04:07:19;97563.91;;;8.19;100.00
11314;BME280;5712;48.858;9.206;2023-11-21T04:09:47;97558.63;;;8.19;100.00
11314;BME280;5712;48.858;9.206;2023-11-21T04:12:13;97559.81;;;8.15;100.00
11314;BME280;5712;48.858;9.206;2023-11-21T04:14:40;97565.09;;;8.15;100.00
11314;BME280;5712;48.858;9.206;2023-11-21T04:17:06;97561.69;;;8.13;100.00
11314;BME280;5712;48.858;9.206;2023-11-21T04:19:33;97560.97;;;8.11;100.00
11314;BME280;5712;48.858;9.206;2023-11-21T04:21:59;97571.59;;;8.09;100.00
11314;BME280;5712;48.858;9.206;2023-11-21T04:24:27;97562.88;;;8.09;100.00
11314;BME280;5712;48.858;9.206;2023-11-21T04:26:53;97565.91;;;8.03;100.00
11314;BME280;5712;48.858;9.206;2023-11-21T04:29:20;97568.63;;;8.01;100.00
11314;BME280;5712;48.858;9.206;2023-11-21T04:31:46;97572.53;;;7.96;100.00
11314;BME280;5712;48.858;9.206;2023-11-21T04:34:14;97566.53;;;7.94;100.00
11314;BME280;5712;48.858;9.206;2023-11-21T04:36:40;97565.06;;;7.90;100.00
11314;BME280;5712;48.858;9.206;2023-11-21T04:39:07;97570.94;;;7.81;100.00
11314;BME280;5712;48.858;9.206;2023-11-21T04:41:35;97573.25;;;7.73;100.00
11314;BME280;5712;48.858;9.206;2023-11-21T04:44:04;97569.66;;;7.74;100.00
11314;BME280;5712;48.858;9.206;2023-11-21T04:46:31;97567.75;;;7.76;100.00
11314;BME280;5712;48.858;9.206;2023-11-21T04:48:58;97569.88;;;7.71;100.00
11314;BME280;5712;48.858;9.206;2023-11-21T04:51:24;97575.31;;;7.68;100.00
11314;BME280;5712;48.858;9.206;2023-11-21T04:53:51;97571.75;;;7.69;100.00
11314;BME280;5712;48.858;9.206;2023-11-21T04:56:17;97571.56;;;7.72;100.00
11314;BME280;5712;48.858;9.206;2023-11-21T04:58:45;97576.41;;;7.78;100.00
11314;BME280;5712;48.858;9.206;2023-11-21T05:01:11;97578.09;;;7.79;100.00
11314;BME280;5712;48.858;9.206;2023-11-21T05:03:38;97584.63;;;7.86;100.00
11314;BME280;5712;48.858;9.206;2023-11-21T05:06:06;97571.56;;;7.84;100.00
11314;BME280;5712;48.858;9.206;2023-11-21T05:08:32;97572.59;;;7.82;100.00
11314;BME280;5712;48.858;9.206;2023-11-21T05:10:59;97567.34;;;7.82;100.00
11314;BME280;5712;48.858;9.206;2023-11-21T05:13:25;97577.22;;;7.78;100.00
11314;BME280;5712;48.858;9.206;2023-11-21T05:15:54;97571.16;;;7.78;100.00
11314;BME280;5712;48.858;9.206;2023-11-21T05:18:20;97576.59;;;7.75;100.00
11314;BME280;5712;48.858;9.206;2023-11-21T05:20:47;97576.81;;;7.72;100.00
11314;BME280;5712;48.858;9.206;2023-11-21T05:23:14;97585.53;;;7.72;100.00
11314;BME280;5712;48.858;9.206;2023-11-21T05:25:40;97577.53;;;7.74;100.00
11314;BME280;5712;48.858;9.206;2023-11-21T05:28:07;97580.41;;;7.71;100.00
11314;BME280;5712;48.858;9.206;2023-11-21T05:30:34;97587.66;;;7.67;100.00
11314;BME280;5712;48.858;9.206;2023-11-21T05:33:01;97601.00;;;7.64;100.00
11314;BME280;5712;48.858;9.206;2023-11-21T05:35:28;97594.13;;;7.62;100.00
11314;BME280;5712;48.858;9.206;2023-11-21T05:37:54;97602.25;;;7.71;100.00
11314;BME280;5712;48.858;9.206;2023-11-21T05:40:21;97611.41;;;7.66;100.00
11314;BME280;5712;48.858;9.206;2023-11-21T05:42:48;97607.19;;;7.63;100.00
11314;BME280;5712;48.858;9.206;2023-11-21T05:45:16;97610.47;;;7.67;100.00
11314;BME280;5712;48.858;9.206;2023-11-21T05:47:44;97616.47;;;7.69;100.00
11314;BME280;5712;48.858;9.206;2023-11-21T05:50:14;97615.91;;;7.64;100.00
11314;BME280;5712;48.858;9.206;2023-11-21T05:52:42;97619.50;;;7.63;100.00
11314;BME280;5712;48.858;9.206;2023-11-21T05:55:08;97617.63;;;7.65;100.00
11314;BME280;5712;48.858;9.206;2023-11-21T05:57:35;97617.63;;;7.65;100.00
11314;BME280;5712;48.858;9.206;2023-11-21T06:00:04;97615.28;;;7.60;100.00
11314;BME280;5712;48.858;9.206;2023-11-21T06:02:37;97619.88;;;7.57;100.00
11314;BME280;5712;48.858;9.206;2023-11-21T06:05:04;97627.44;;;7.49;100.00
11314;BME280;5712;48.858;9.206;2023-11-21T06:07:32;97629.34;;;7.47;100.00
11314;BME280;5712;48.858;9.206;2023-11-21T06:09:58;97625.94;;;7.45;100.00
11314;BME280;5712;48.858;9.206;2023-11-21T06:12:25;97631.41;;;7.42;100.00
11314;BME280;5712;48.858;9.206;2023-11-21T06:14:51;97630.56;;;7.41;100.00
11314;BME280;5712;48.858;9.206;2023-11-21T06:17:18;97631.41;;;7.42;100.00
11314;BME280;5712;48.858;9.206;2023-11-21T06:19:45;97639.22;;;7.43;100.00
11314;BME280;5712;48.858;9.206;2023-11-21T06:22:11;97644.75;;;7.39;100.00
11314;BME280;5712;48.858;9.206;2023-11-21T06:24:39;97640.44;;;7.38;100.00
11314;BME280;5712;48.858;9.206;2023-11-21T06:27:07;97645.13;;;7.33;100.00
11314;BME280;5712;48.858;9.206;2023-11-21T06:29:34;97652.75;;;7.38;100.00
11314;BME280;5712;48.858;9.206;2023-11-21T06:32:02;97647.19;;;7.42;100.00
11314;BME280;5712;48.858;9.206;2023-11-21T06:34:30;97642.75;;;7.42;100.00
11314;BME280;5712;48.858;9.206;2023-11-21T06:36:56;97653.19;;;7.44;100.00
11314;BME280;5712;48.858;9.206;2023-11-21T06:39:23;97653.91;;;7.46;100.00
11314;BME280;5712;48.858;9.206;2023-11-21T06:41:51;97663.50;;;7.47;100.00
11314;BME280;5712;48.858;9.206;2023-11-21T06:44:17;97662.56;;;7.48;100.00
11314;BME280;5712;48.858;9.206;2023-11-21T06:46:44;97660.50;;;7.53;100.00
11314;BME280;5712;48.858;9.206;2023-11-21T06:49:11;97668.38;;;7.53;100.00
11314;BME280;5712;48.858;9.206;2023-11-21T06:51:38;97667.22;;;7.57;100.00
11314;BME280;5712;48.858;9.206;2023-11-21T06:54:05;97663.56;;;7.59;100.00
11314;BME280;5712;48.858;9.206;2023-11-21T06:56:32;97674.16;;;7.58;100.00
11314;BME280;5712;48.858;9.206;2023-11-21T06:59:00;97670.41;;;7.62;100.00
11314;BME280;5712;48.858;9.206;2023-11-21T07:01:26;97680.91;;;7.62;100.00
11314;BME280;5712;48.858;9.206;2023-11-21T07:03:53;97677.16;;;7.66;100.00
11314;BME280;5712;48.858;9.206;2023-11-21T07:06:18;97678.84;;;7.67;100.00
11314;BME280;5712;48.858;9.206;2023-11-21T07:08:45;97682.22;;;7.69;100.00
11314;BME280;5712;48.858;9.206;2023-11-21T07:11:12;97689.16;;;7.70;100.00
11314;BME280;5712;48.858;9.206;2023-11-21T07:13:38;97698.00;;;7.69;100.00
11314;BME280;5712;48.858;9.206;2023-11-21T07:16:07;97692.00;;;7.67;100.00
11314;BME280;5712;48.858;9.206;2023-11-21T07:18:34;97691.03;;;7.68;100.00
11314;BME280;5712;48.858;9.206;2023-11-21T07:21:00;97690.94;;;7.69;100.00
11314;BME280;5712;48.858;9.206;2023-11-21T07:23:27;97692.72;;;7.69;100.00
11314;BME280;5712;48.858;9.206;2023-11-21T07:25:53;97699.66;;;7.70;100.00
11314;BME280;5712;48.858;9.206;2023-11-21T07:28:20;97710.19;;;7.70;100.00
11314;BME280;5712;48.858;9.206;2023-11-21T07:30:46;97710.41;;;7.67;100.00
11314;BME280;5712;48.858;9.206;2023-11-21T07:33:14;97708.91;;;7.63;100.00
11314;BME280;5712;48.858;9.206;2023-11-21T07:35:41;97715.09;;;7.62;100.00
11314;BME280;5712;48.858;9.206;2023-11-21T07:38:07;97713.50;;;7.59;100.00
11314;BME280;5712;48.858;9.206;2023-11-21T07:40:34;97720.38;;;7.62;100.00
11314;BME280;5712;48.858;9.206;2023-11-21T07:43:00;97722.81;;;7.65;100.00
11314;BME280;5712;48.858;9.206;2023-11-21T07:45:27;97727.47;;;7.74;100.00
11314;BME280;5712;48.858;9.206;2023-11-21T07:47:53;97721.81;;;7.80;100.00
11314;BME280;5712;48.858;9.206;2023-11-21T07:50:21;97726.91;;;7.83;100.00
11314;BME280;5712;48.858;9.206;2023-11-21T07:52:48;97730.25;;;7.85;100.00
11314;BME280;5712;48.858;9.206;2023-11-21T07:55:15;97723.97;;;7.87;100.00
11314;BME280;5712;48.858;9.206;2023-11-21T07:57:42;97733.84;;;7.84;100.00
11314;BME280;5712;48.858;9.206;2023-11-21T08:00:09;97725.66;;;7.88;100.00
11314;BME280;5712;48.858;9.206;2023-11-21T08:02:37;97729.66;;;7.94;100.00
11314;BME280;5712;48.858;9.206;2023-11-21T08:05:04;97738.56;;;8.05;100.00
11314;BME280;5712;48.858;9.206;2023-11-21T08:07:33;97736.25;;;8.13;100.00
11314;BME280;5712;48.858;9.206;2023-11-21T08:10:00;97742.00;;;8.20;100.00
11314;BME280;5712;48.858;9.206;2023-11-21T08:12:26;97742.44;;;8.26;100.00
11314;BME280;5712;48.858;9.206;2023-11-21T08:14:53;97747.28;;;8.32;100.00
11314;BME280;5712;48.858;9.206;2023-11-21T08:17:20;97744.16;;;8.40;100.00
11314;BME280;5712;48.858;9.206;2023-11-21T08:19:46;97753.56;;;8.44;100.00
11314;BME280;5712;48.858;9.206;2023-11-21T08:22:14;97749.00;;;8.46;100.00
11314;BME280;5712;48.858;9.206;2023-11-21T08:24:43;97754.69;;;8.52;100.00
11314;BME280;5712;48.858;9.206;2023-11-21T08:27:11;97757.03;;;8.57;100.00
11314;BME280;5712;48.858;9.206;2023-11-21T08:29:40;97762.94;;;8.60;100.00
11314;BME280;5712;48.858;9.206;2023-11-21T08:32:07;97757.69;;;8.73;100.00
11314;BME280;5712;48.858;9.206;2023-11-21T08:34:33;97756.44;;;8.78;100.00
11314;BME280;5712;48.858;9.206;2023-11-21T08:37:00;97760.44;;;8.84;100.00
11314;BME280;5712;48.858;9.206;2023-11-21T08:39:26;97756.25;;;8.94;100.00
11314;BME280;5712;48.858;9.206;2023-11-21T08:41:54;97757.91;;;8.95;100.00
11314;BME280;5712;48.858;9.206;2023-11-21T08:44:21;97766.56;;;8.97;100.00
11314;BME280;5712;48.858;9.206;2023-11-21T08:46:48;97762.53;;;9.04;100.00
11314;BME280;5712;48.858;9.206;2023-11-21T08:49:14;97763.72;;;9.00;100.00
11314;BME280;5712;48.858;9.206;2023-11-21T08:51:44;97765.19;;;9.04;100.00
11314;BME280;5712;48.858;9.206;2023-11-21T08:54:10;97767.63;;;9.07;100.00
11314;BME280;5712;48.858;9.206;2023-11-21T08:56:37;97776.88;;;9.12;100.00
11314;BME280;5712;48.858;9.206;2023-11-21T08:59:05;97776.69;;;9.15;100.00
11314;BME280;5712;48.858;9.206;2023-11-21T09:01:33;97783.84;;;9.26;100.00
11314;BME280;5712;48.858;9.206;2023-11-21T09:03:59;97782.69;;;9.30;100.00
11314;BME280;5712;48.858;9.206;2023-11-21T09:06:26;97780.13;;;9.41;100.00
11314;BME280;5712;48.858;9.206;2023-11-21T09:08:52;97781.91;;;9.53;100.00
11314;BME280;5712;48.858;9.206;2023-11-21T09:11:19;97786.13;;;9.68;100.00
11314;BME280;5712;48.858;9.206;2023-11-21T09:13:45;97783.25;;;9.71;100.00
11314;BME280;5712;48.858;9.206;2023-11-21T09:16:14;97785.44;;;9.77;100.00
11314;BME280;5712;48.858;9.206;2023-11-21T09:18:41;97791.88;;;9.85;100.00
11314;BME280;5712;48.858;9.206;2023-11-21T09:21:08;97796.09;;;9.88;100.00
11314;BME280;5712;48.858;9.206;2023-11-21T09:23:35;97795.75;;;9.92;100.00
11314;BME280;5712;48.858;9.206;2023-11-21T09:26:01;97798.09;;;9.97;100.00
11314;BME280;5712;48.858;9.206;2023-11-21T09:28:28;97805.16;;;9.96;100.00
11314;BME280;5712;48.858;9.206;2023-11-21T09:30:55;97795.31;;;9.98;100.00
11314;BME280;5712;48.858;9.206;2023-11-21T09:33:22;97803.13;;;10.00;100.00
11314;BME280;5712;48.858;9.206;2023-11-21T09:35:50;97807.78;;;9.96;100.00
11314;BME280;5712;48.858;9.206;2023-11-21T09:38:17;97806.22;;;10.06;100.00
11314;BME280;5712;48.858;9.206;2023-11-21T09:40:44;97800.59;;;10.11;100.00
11314;BME280;5712;48.858;9.206;2023-11-21T09:43:16;97806.41;;;10.03;100.00
11314;BME280;5712;48.858;9.206;2023-11-21T09:45:45;97809.91;;;10.04;100.00
11314;BME280;5712;48.858;9.206;2023-11-21T09:48:12;97814.41;;;10.02;100.00
11314;BME280;5712;48.858;9.206;2023-11-21T09:50:41;97814.13;;;9.94;100.00
11314;BME280;5712;48.858;9.206;2023-11-21T09:53:13;97818.16;;;9.87;100.00
11314;BME280;5712;48.858;9.206;2023-11-21T09:55:42;97822.72;;;9.85;100.00
11314;BME280;5712;48.858;9.206;2023-11-21T09:58:10;97822.59;;;9.86;100.00
11314;BME280;5712;48.858;9.206;2023-11-21T10:00:40;97819.56;;;9.80;100.00
11314;BME280;5712;48.858;9.206;2023-11-21T10:03:06;97832.03;;;9.78;100.00
11314;BME280;5712;48.858;9.206;2023-11-21T10:05:33;97823.88;;;9.68;100.00
11314;BME280;5712;48.858;9.206;2023-11-21T10:08:02;97827.28;;;9.58;100.00
11314;BME280;5712;48.858;9.206;2023-11-21T10:10:32;97829.00;;;9.46;100.00
11314;BME280;5712;48.858;9.206;2023-11-21T10:13:02;97828.38;;;9.43;100.00
11314;BME280;5712;48.858;9.206;2023-11-21T10:15:29;97822.56;;;9.38;100.00
11314;BME280;5712;48.858;9.206;2023-11-21T10:18:02;97829.22;;;9.31;100.00
11314;BME280;5712;48.858;9.206;2023-11-21T10:20:30;97830.69;;;9.22;100.00
11314;BME280;5712;48.858;9.206;2023-11-21T10:22:59;97832.47;;;9.22;100.00
11314;BME280;5712;48.858;9.206;2023-11-21T10:25:28;97834.47;;;9.18;100.00
11314;BME280;5712;48.858;9.206;2023-11-21T10:27:57;97837.97;;;9.19;100.00
11314;BME280;5712;48.858;9.206;2023-11-21T10:30:28;97828.16;;;9.21;100.00
11314;BME280;5712;48.858;9.206;2023-11-21T10:32:58;97832.59;;;9.20;100.00
11314;BME280;5712;48.858;9.206;2023-11-21T10:35:38;97832.78;;;9.17;100.00
11314;BME280;5712;48.858;9.206;2023-11-21T10:38:05;97837.22;;;9.17;100.00
11314;BME280;5712;48.858;9.206;2023-11-21T10:40:37;97838.50;;;9.24;100.00
11314;BME280;5712;48.858;9.206;2023-11-21T10:43:06;97836.91;;;9.34;100.00
11314;BME280;5712;48.858;9.206;2023-11-21T10:45:34;97839.53;;;9.34;100.00
11314;BME280;5712;48.858;9.206;2023-11-21T10:48:05;97837.66;;;9.36;100.00
11314;BME280;5712;48.858;9.206;2023-11-21T10:50:32;97835.53;;;9.41;100.00
11314;BME280;5712;48.858;9.206;2023-11-21T10:53:01;97837.88;;;9.45;100.00
11314;BME280;5712;48.858;9.206;2023-11-21T10:55:27;97838.69;;;9.46;100.00
11314;BME280;5712;48.858;9.206;2023-11-21T10:57:58;97850.72;;;9.50;100.00
11314;BME280;5712;48.858;9.206;2023-11-21T11:00:25;97848.63;;;9.55;100.00
11314;BME280;5712;48.858;9.206;2023-11-21T11:02:53;97844.59;;;9.62;100.00
11314;BME280;5712;48.858;9.206;2023-11-21T11:05:21;97840.16;;;9.62;100.00
11314;BME280;5712;48.858;9.206;2023-11-21T11:07:50;97841.53;;;9.68;100.00
11314;BME280;5712;48.858;9.206;2023-11-21T11:10:19;97840.16;;;9.75;100.00
11314;BME280;5712;48.858;9.206;2023-11-21T11:12:48;97836.34;;;9.79;100.00
11314;BME280;5712;48.858;9.206;2023-11-21T11:15:16;97832.94;;;9.89;100.00
11314;BME280;5712;48.858;9.206;2023-11-21T11:17:44;97833.56;;;9.93;100.00
11314;BME280;5712;48.858;9.206;2023-11-21T11:20:13;97833.91;;;9.88;100.00
11314;BME280;5712;48.858;9.206;2023-11-21T11:22:44;97834.22;;;9.84;100.00
11314;BME280;5712;48.858;9.206;2023-11-21T11:25:25;97835.16;;;9.83;100.00
11314;BME280;5712;48.858;9.206;2023-11-21T11:27:55;97843.59;;;9.88;100.00
11314;BME280;5712;48.858;9.206;2023-11-21T11:30:38;97837.38;;;9.89;100.00
11314;BME280;5712;48.858;9.206;2023-11-21T11:33:11;97839.06;;;9.90;100.00
11314;BME280;5712;48.858;9.206;2023-11-21T11:35:46;97839.50;;;9.84;100.00
11314;BME280;5712;48.858;9.206;2023-11-21T11:38:16;97839.50;;;9.84;100.00
11314;BME280;5712;48.858;9.206;2023-11-21T11:40:45;97836.63;;;9.87;100.00
11314;BME280;5712;48.858;9.206;2023-11-21T11:43:12;97846.16;;;9.77;100.00
11314;BME280;5712;48.858;9.206;2023-11-21T11:45:40;97836.03;;;9.71;100.00
11314;BME280;5712;48.858;9.206;2023-11-21T11:48:08;97844.78;;;9.59;100.00
11314;BME280;5712;48.858;9.206;2023-11-21T11:50:34;97856.72;;;9.52;100.00
11314;BME280;5712;48.858;9.206;2023-11-21T11:53:14;97856.00;;;9.50;100.00
11314;BME280;5712;48.858;9.206;2023-11-21T11:55:41;97850.41;;;9.42;100.00
11314;BME280;5712;48.858;9.206;2023-11-21T11:58:08;97849.03;;;9.49;100.00
11314;BME280;5712;48.858;9.206;2023-11-21T12:00:35;97843.78;;;9.49;100.00
11314;BME280;5712;48.858;9.206;2023-11-21T12:03:07;97849.03;;;9.49;100.00
11314;BME280;5712;48.858;9.206;2023-11-21T12:05:35;97852.41;;;9.51;100.00
11314;BME280;5712;48.858;9.206;2023-11-21T12:08:05;97843.53;;;9.52;100.00
11314;BME280;5712;48.858;9.206;2023-11-21T12:10:33;97849.66;;;9.52;100.00
11314;BME280;5712;48.858;9.206;2023-11-21T12:13:01;97854.94;;;9.52;100.00
11314;BME280;5712;48.858;9.206;2023-11-21T12:15:28;97850.50;;;9.53;100.00
11314;BME280;5712;48.858;9.206;2023-11-21T12:17:57;97855.34;;;9.59;100.00
11314;BME280;5712;48.858;9.206;2023-11-21T12:20:27;97857.25;;;9.57;100.00
11314;BME280;5712;48.858;9.206;2023-11-21T12:22:55;97861.47;;;9.59;100.00
11314;BME280;5712;48.858;9.206;2023-11-21T12:25:26;97857.16;;;9.58;100.00
11314;BME280;5712;48.858;9.206;2023-11-21T12:27:54;97862.22;;;9.61;100.00
11314;BME280;5712;48.858;9.206;2023-11-21T12:30:23;97856.72;;;9.52;100.00
11314;BME280;5712;48.858;9.206;2023-11-21T12:32:54;97860.13;;;9.54;100.00
11314;BME280;5712;48.858;9.206;2023-11-21T12:35:23;97855.56;;;9.68;100.00
11314;BME280;5712;48.858;9.206;2023-11-21T12:37:52;97861.06;;;9.65;100.00
11314;BME280;5712;48.858;9.206;2023-11-21T12:40:19;97860.81;;;9.68;100.00
11314;BME280;5712;48.858;9.206;2023-11-21T12:42:49;97857.47;;;9.79;100.00
11314;BME280;5712;48.858;9.206;2023-11-21T12:45:21;97856.81;;;9.88;100.00
11314;BME280;5712;48.858;9.206;2023-11-21T12:47:48;97866.91;;;9.94;100.00
11314;BME280;5712;48.858;9.206;2023-11-21T12:50:18;97860.59;;;9.96;100.00
11314;BME280;5712;48.858;9.206;2023-11-21T12:52:50;97861.44;;;9.84;100.00
11314;BME280;5712;48.858;9.206;2023-11-21T12:55:19;97871.63;;;9.78;100.00
11314;BME280;5712;48.858;9.206;2023-11-21T12:57:48;97877.31;;;9.72;100.00
11314;BME280;5712;48.858;9.206;2023-11-21T13:00:16;97885.56;;;9.55;100.00
11314;BME280;5712;48.858;9.206;2023-11-21T13:02:53;97884.28;;;9.48;100.00
11314;BME280;5712;48.858;9.206;2023-11-21T13:05:29;97879.31;;;9.31;100.00
11314;BME280;5712;48.858;9.206;2023-11-21T13:07:58;97886.38;;;9.18;100.00
11314;BME280;5712;48.858;9.206;2023-11-21T13:10:28;97879.59;;;9.14;100.00
11314;BME280;5712;48.858;9.206;2023-11-21T13:12:57;97889.28;;;9.13;100.00